createdAt,value
2023-04-15T00:05:29.398Z,24.8
2023-04-15T00:11:20.494Z,25.4
2023-04-15T00:16:56.740Z,26.8
2023-04-15T00:22:49.032Z,26.8
2023-04-15T00:28:39.574Z,26.4
2023-04-15T00:34:32.044Z,26
2023-04-15T00:40:23.582Z,24.6
2023-04-15T00:45:59.387Z,25.9
2023-04-15T00:51:52.275Z,26.9
2023-04-15T00:57:43.630Z,26.7
2023-04-15T01:03:35.825Z,26.3
2023-04-15T01:09:13.125Z,25.9
2023-04-15T01:15:04.420Z,24.7
2023-04-15T01:20:56.637Z,26.3
2023-04-15T01:26:48.361Z,26.9
2023-04-15T01:32:40.381Z,26.6
2023-04-15T01:38:31.307Z,26.2
2023-04-15T01:44:23.414Z,25.9
2023-04-15T01:50:15.274Z,24.8
2023-04-15T01:56:06.156Z,26.6
2023-04-15T02:01:42.989Z,26.9
2023-04-15T02:07:20.036Z,26.6
2023-04-15T02:13:11.230Z,26.2
2023-04-15T02:19:03.066Z,25.8
2023-04-15T02:24:25.211Z,24.8
2023-04-15T02:30:17.719Z,26.5
2023-04-15T02:36:09.795Z,26.9
2023-04-15T02:42:01.311Z,25.9
2023-04-15T02:47:53.131Z,25
2023-04-15T02:53:45.032Z,24.6
2023-04-15T02:59:36.599Z,24.3
2023-04-15T03:05:29.485Z,24.4
2023-04-15T03:11:21.094Z,25.3
2023-04-15T03:17:12.325Z,26.8
2023-04-15T03:23:03.277Z,26.9
2023-04-15T03:28:55.660Z,25.4
2023-04-15T03:34:31.563Z,24.9
2023-04-15T03:40:08.363Z,24.3
2023-04-15T03:46:01.796Z,23.9
2023-04-15T03:52:07.457Z,23.7
2023-04-15T03:57:58.033Z,23.8
2023-04-15T04:03:51.038Z,25
2023-04-15T04:09:43.059Z,26.6
2023-04-15T04:15:34.086Z,26.9
2023-04-15T04:21:10.650Z,25.6
2023-04-15T04:26:46.691Z,24.9
2023-04-15T04:32:38.404Z,24.4
2023-04-15T04:38:30.522Z,24
2023-04-15T04:44:22.328Z,23.8
2023-04-15T04:50:13.758Z,23.6
2023-04-15T04:56:05.459Z,24.6
2023-04-15T05:01:57.488Z,26.4
2023-04-15T05:07:34.381Z,26.8
2023-04-15T05:13:26.398Z,25.7
2023-04-15T05:19:20.454Z,24.9
2023-04-15T05:25:13.426Z,24.4
2023-04-15T05:31:06.494Z,24
2023-04-15T05:36:58.004Z,23.8
2023-04-15T05:42:49.812Z,23.5
2023-04-15T05:48:42.264Z,24.4
2023-04-15T05:54:36.704Z,26.3
2023-04-15T06:00:27.816Z,26.9
2023-04-15T06:05:50.434Z,26.8
2023-04-15T06:11:26.472Z,26.4
2023-04-15T06:17:03.169Z,25.5
2023-04-15T06:22:55.538Z,25.3
2023-04-15T06:28:16.845Z,26.9
2023-04-15T06:34:08.843Z,26.9
2023-04-15T06:39:45.986Z,26.7
2023-04-15T06:45:23.505Z,26.4
2023-04-15T06:51:15.127Z,24.9
2023-04-15T06:57:06.844Z,26.4
2023-04-15T07:02:42.566Z,27
2023-04-15T07:08:33.389Z,26.8
2023-04-15T07:14:24.878Z,26.4
2023-04-15T07:20:18.953Z,26.1
2023-04-15T07:26:10.458Z,25.7
2023-04-15T07:32:03.415Z,25.3
2023-04-15T07:37:53.944Z,24.9
2023-04-15T07:43:46.981Z,24.6
2023-04-15T07:49:41.362Z,24.3
2023-04-15T07:55:32.783Z,24
2023-04-15T08:01:24.153Z,23.7
2023-04-15T08:07:04.408Z,23.4
2023-04-15T08:12:40.361Z,23.3
2023-04-15T08:18:31.839Z,23.1
2023-04-15T08:24:30.215Z,22.8
2023-04-15T08:30:22.404Z,22.6
2023-04-15T08:36:13.303Z,22.4
2023-04-15T08:41:50.833Z,22.3
2023-04-15T08:47:27.093Z,22.2
2023-04-15T08:53:04.555Z,22
2023-04-15T08:58:56.010Z,22
2023-04-15T09:04:48.197Z,21.9
2023-04-15T09:10:39.840Z,21.8
2023-04-15T09:16:34.201Z,21.7
2023-04-15T09:22:24.583Z,21.6
2023-04-15T09:28:18.426Z,21.5
2023-04-15T09:34:10.906Z,21.5
2023-04-15T09:40:16.326Z,21.4
2023-04-15T09:45:53.020Z,21.4
2023-04-15T09:51:32.341Z,21.3
2023-04-15T09:57:22.168Z,21.3
2023-04-15T10:03:14.936Z,21.3
2023-04-15T10:08:51.727Z,21.2
2023-04-15T10:31:02.169Z,21.1
2023-04-15T10:36:53.420Z,21.1
2023-04-15T10:42:29.249Z,21.1
2023-04-15T10:48:06.080Z,21.1
2023-04-15T10:53:56.765Z,21
2023-04-15T10:59:47.779Z,20.9
2023-04-15T11:05:25.865Z,20.9
2023-04-15T11:11:17.364Z,20.9
2023-04-15T11:17:09.324Z,20.9
2023-04-15T11:23:08.526Z,20.9
2023-04-15T11:29:06.561Z,20.9
2023-04-15T11:34:43.360Z,20.9
2023-04-15T11:40:34.818Z,20.9
2023-04-15T11:46:39.404Z,20.8
2023-04-15T11:51:44.970Z,20.9
2023-04-15T11:57:05.408Z,20.8
2023-04-15T12:02:48.071Z,20.9
2023-04-15T12:08:27.566Z,20.8
2023-04-15T12:14:18.714Z,20.8
2023-04-15T12:20:37.022Z,20.8
2023-04-15T12:26:27.871Z,20.8
2023-04-15T12:32:19.295Z,20.8
2023-04-15T12:37:58.223Z,20.8
2023-04-15T12:43:19.991Z,20.8
2023-04-15T12:49:11.317Z,20.8
2023-04-15T12:55:02.741Z,20.8
2023-04-15T13:00:25.049Z,20.8
2023-04-15T13:06:18.608Z,20.8
2023-04-15T13:12:15.891Z,20.8
2023-04-15T13:18:07.236Z,20.8
2023-04-15T13:23:58.531Z,20.8
2023-04-15T13:29:51.360Z,20.8
2023-04-15T13:35:42.949Z,20.8
2023-04-15T13:41:36.160Z,20.8
2023-04-15T13:47:27.899Z,20.8
2023-04-15T13:53:19.080Z,20.8
2023-04-15T13:59:42.231Z,20.8
2023-04-15T14:05:19.584Z,20.8
2023-04-15T14:11:14.533Z,20.8
2023-04-15T14:17:06.733Z,20.8
2023-04-15T14:23:01.958Z,20.8
2023-04-15T14:29:06.838Z,20.8
2023-04-15T14:34:58.546Z,20.8
2023-04-15T14:40:49.937Z,20.8
2023-04-15T14:46:41.357Z,20.8
2023-04-15T14:52:33.119Z,20.8
2023-04-15T14:58:24.769Z,20.8
2023-04-15T15:04:34.661Z,20.8
2023-04-15T15:10:30.239Z,20.9
2023-04-15T15:16:52.276Z,20.8
2023-04-15T15:22:43.895Z,20.8
2023-04-15T15:28:35.477Z,20.9
2023-04-15T15:34:28.043Z,20.9
2023-04-15T15:40:20.051Z,20.9
2023-04-15T15:45:57.562Z,20.9
2023-04-15T15:51:50.091Z,20.9
2023-04-15T15:57:10.924Z,20.9
2023-04-15T16:03:40.858Z,20.9
2023-04-15T16:09:36.842Z,20.9
2023-04-15T16:15:28.401Z,20.9
2023-04-15T16:21:37.995Z,20.9
2023-04-15T16:27:30.001Z,20.9
2023-04-15T16:33:40.657Z,20.9
2023-04-15T16:39:31.382Z,20.9
2023-04-15T16:45:24.474Z,20.9
2023-04-15T16:51:15.341Z,21
2023-04-15T16:57:08.803Z,20.9
2023-04-15T17:03:33.169Z,20.9
2023-04-15T17:09:25.971Z,20.9
2023-04-15T17:15:16.892Z,20.9
2023-04-15T17:21:09.773Z,20.9
2023-04-15T17:26:29.776Z,20.9
2023-04-15T17:32:22.415Z,20.9
2023-04-15T17:39:14.714Z,20.9
2023-04-15T17:45:05.695Z,20.9
2023-04-15T17:50:58.426Z,20.9
2023-04-15T17:56:50.964Z,20.9
2023-04-15T18:02:43.623Z,20.9
2023-04-15T18:08:37.317Z,20.9
2023-04-15T18:14:47.057Z,20.8
2023-04-15T18:20:38.517Z,20.8
2023-04-15T18:26:30.580Z,20.9
2023-04-15T18:32:23.136Z,20.8
2023-04-15T18:38:02.190Z,20.8
2023-04-15T18:43:39.175Z,20.8
2023-04-15T18:49:31.788Z,20.8
2023-04-15T18:55:23.566Z,20.8
2023-04-15T19:02:12.201Z,20.8
2023-04-15T19:08:05.429Z,20.8
2023-04-15T19:13:56.664Z,20.8
2023-04-15T19:19:49.140Z,20.7
2023-04-15T19:25:41.510Z,20.7
2023-04-15T19:31:35.412Z,20.7
2023-04-15T19:37:12.004Z,20.6
2023-04-15T19:42:48.241Z,20.7
2023-04-15T19:48:24.451Z,20.6
2023-04-15T19:54:00.690Z,20.6
2023-04-15T19:59:51.883Z,20.6
2023-04-15T20:05:44.980Z,20.6
2023-04-15T20:11:24.561Z,20.6
2023-04-15T20:18:22.368Z,20.6
2023-04-15T20:24:13.326Z,20.6
2023-04-15T20:30:04.324Z,20.6
2023-04-15T20:35:56.179Z,20.6
2023-04-15T20:41:47.826Z,20.5
2023-04-15T20:47:51.588Z,21.8
2023-04-15T20:53:43.413Z,23.4
2023-04-15T20:59:37.258Z,25
2023-04-15T21:05:30.356Z,25.4
2023-04-15T21:11:36.844Z,25.3
2023-04-15T21:17:34.108Z,25.1
2023-04-15T21:23:11.318Z,24.9
2023-04-15T21:29:04.167Z,24.3
2023-04-15T21:34:55.046Z,23.1
2023-04-15T21:40:31.294Z,25.2
2023-04-15T21:46:37.848Z,25.6
2023-04-15T21:53:02.649Z,25.4
2023-04-15T21:58:53.956Z,25.3
2023-04-15T22:04:50.005Z,25.1
2023-04-15T22:10:53.458Z,24.4
2023-04-15T22:16:44.773Z,23.5
2023-04-15T22:22:43.672Z,25.4
2023-04-15T22:29:18.665Z,25.7
2023-04-15T22:35:10.441Z,25.5
2023-04-15T22:41:02.927Z,25.4
2023-04-15T22:46:39.411Z,25.1
2023-04-15T22:52:46.524Z,24.9
2023-04-15T22:58:23.524Z,23.1
2023-04-15T23:04:42.337Z,24.9
2023-04-15T23:10:26.012Z,25.7
2023-04-15T23:16:17.795Z,25.6
2023-04-15T23:22:09.385Z,25.4
2023-04-15T23:28:00.292Z,25.3
2023-04-15T23:33:53.045Z,25.1
2023-04-15T23:39:44.691Z,24.8
2023-04-15T23:45:19.973Z,23.3
2023-04-15T23:51:14.994Z,25
2023-04-15T23:57:06.460Z,25.8
